Noble, Missouri
Current Conditions -  °F | °C
As of 4:53 PM on Wednesday 26 Nov 2014 (Local Time) from KBPK Reporting Station
Clear Clear  
Wind Chill: 42°   Ceiling: Unl
Heat Index: 45°   Visibility: 10mi
Dew Point: 27°   Wind: 6mph
Humidity: 49%   Direction: NA
Pressure: 30.08"   Gusts: NA
Location:  36.75°N, 92.57°W
Report Text: KBPK 262253Z AUTO VRB05KT 10SM CLR 07/M03 A3008 RMK AO2 SLP191 T00721028
Loading
Personal Weather Stations






























Interactive Weather Map New forecast layout! Learn more

10-Day Weather Forecast

Advertisements
Track Severe Weather on mobile